sensor_id;sensor_type;location;lat;lon;timestamp;temperature;humidity
65406;DHT22;52016;51.228;-2.322;2022-07-06T00:03:17;17.60;60.60
65406;DHT22;52016;51.228;-2.322;2022-07-06T00:06:59;17.50;60.80
65406;DHT22;52016;51.228;-2.322;2022-07-06T00:10:41;17.40;60.90
65406;DHT22;52016;51.228;-2.322;2022-07-06T00:14:23;17.40;61.10
65406;DHT22;52016;51.228;-2.322;2022-07-06T00:18:05;17.40;61.30
65406;DHT22;52016;51.228;-2.322;2022-07-06T00:21:47;17.30;61.40
65406;DHT22;52016;51.228;-2.322;2022-07-06T00:25:29;17.30;61.60
65406;DHT22;52016;51.228;-2.322;2022-07-06T00:29:11;17.30;61.70
65406;DHT22;52016;51.228;-2.322;2022-07-06T00:32:53;17.30;61.60
65406;DHT22;52016;51.228;-2.322;2022-07-06T00:36:35;17.20;61.70
65406;DHT22;52016;51.228;-2.322;2022-07-06T00:40:17;17.30;61.70
65406;DHT22;52016;51.228;-2.322;2022-07-06T00:44:00;17.20;61.70
65406;DHT22;52016;51.228;-2.322;2022-07-06T00:47:42;17.20;61.80
65406;DHT22;52016;51.228;-2.322;2022-07-06T00:51:32;17.20;61.90
65406;DHT22;52016;51.228;-2.322;2022-07-06T00:55:19;17.20;62.80
65406;DHT22;52016;51.228;-2.322;2022-07-06T00:59:01;17.10;62.10
65406;DHT22;52016;51.228;-2.322;2022-07-06T01:02:44;17.10;62.20
65406;DHT22;52016;51.228;-2.322;2022-07-06T01:06:26;17.00;62.30
65406;DHT22;52016;51.228;-2.322;2022-07-06T01:10:10;17.10;62.40
65406;DHT22;52016;51.228;-2.322;2022-07-06T01:13:53;17.00;62.40
65406;DHT22;52016;51.228;-2.322;2022-07-06T01:17:38;16.90;62.70
65406;DHT22;52016;51.228;-2.322;2022-07-06T01:21:20;16.90;62.80
65406;DHT22;52016;51.228;-2.322;2022-07-06T01:25:04;16.90;63.00
65406;DHT22;52016;51.228;-2.322;2022-07-06T01:28:48;16.80;63.00
65406;DHT22;52016;51.228;-2.322;2022-07-06T01:32:30;16.80;63.20
65406;DHT22;52016;51.228;-2.322;2022-07-06T01:36:12;16.90;63.10
65406;DHT22;52016;51.228;-2.322;2022-07-06T01:39:58;16.90;63.10
65406;DHT22;52016;51.228;-2.322;2022-07-06T01:43:41;16.80;63.30
65406;DHT22;52016;51.228;-2.322;2022-07-06T01:47:23;16.90;63.10
65406;DHT22;52016;51.228;-2.322;2022-07-06T01:51:05;16.80;63.20
65406;DHT22;52016;51.228;-2.322;2022-07-06T01:54:47;16.80;63.40
65406;DHT22;52016;51.228;-2.322;2022-07-06T01:58:29;16.70;63.50
65406;DHT22;52016;51.228;-2.322;2022-07-06T02:02:11;16.70;63.50
65406;DHT22;52016;51.228;-2.322;2022-07-06T02:05:53;16.60;63.60
65406;DHT22;52016;51.228;-2.322;2022-07-06T02:09:35;16.70;63.50
65406;DHT22;52016;51.228;-2.322;2022-07-06T02:13:17;16.70;63.50
65406;DHT22;52016;51.228;-2.322;2022-07-06T02:16:59;16.70;63.50
65406;DHT22;52016;51.228;-2.322;2022-07-06T02:20:41;16.80;63.30
65406;DHT22;52016;51.228;-2.322;2022-07-06T02:24:23;16.80;63.20
65406;DHT22;52016;51.228;-2.322;2022-07-06T02:28:05;16.80;63.20
65406;DHT22;52016;51.228;-2.322;2022-07-06T02:31:47;16.80;63.20
65406;DHT22;52016;51.228;-2.322;2022-07-06T02:35:30;16.70;63.40
65406;DHT22;52016;51.228;-2.322;2022-07-06T02:39:12;16.60;63.50
65406;DHT22;52016;51.228;-2.322;2022-07-06T02:42:53;16.60;63.70
65406;DHT22;52016;51.228;-2.322;2022-07-06T02:46:35;16.60;63.50
65406;DHT22;52016;51.228;-2.322;2022-07-06T02:50:17;16.60;63.60
65406;DHT22;52016;51.228;-2.322;2022-07-06T02:53:59;16.60;63.60
65406;DHT22;52016;51.228;-2.322;2022-07-06T02:57:41;16.60;63.70
65406;DHT22;52016;51.228;-2.322;2022-07-06T03:01:23;16.60;63.80
65406;DHT22;52016;51.228;-2.322;2022-07-06T03:05:06;16.50;63.90
65406;DHT22;52016;51.228;-2.322;2022-07-06T03:08:48;16.50;64.10
65406;DHT22;52016;51.228;-2.322;2022-07-06T03:12:30;16.60;64.10
65406;DHT22;52016;51.228;-2.322;2022-07-06T03:16:12;16.60;64.00
65406;DHT22;52016;51.228;-2.322;2022-07-06T03:19:54;16.60;64.00
65406;DHT22;52016;51.228;-2.322;2022-07-06T03:23:36;16.70;64.00
65406;DHT22;52016;51.228;-2.322;2022-07-06T03:27:18;16.70;64.00
65406;DHT22;52016;51.228;-2.322;2022-07-06T03:31:00;16.80;64.00
65406;DHT22;52016;51.228;-2.322;2022-07-06T03:34:42;16.80;63.90
65406;DHT22;52016;51.228;-2.322;2022-07-06T03:38:23;16.80;63.80
65406;DHT22;52016;51.228;-2.322;2022-07-06T03:42:07;16.80;63.80
65406;DHT22;52016;51.228;-2.322;2022-07-06T03:45:48;16.70;63.70
65406;DHT22;52016;51.228;-2.322;2022-07-06T03:49:30;16.60;63.70
65406;DHT22;52016;51.228;-2.322;2022-07-06T03:53:12;16.40;63.90
65406;DHT22;52016;51.228;-2.322;2022-07-06T03:56:54;16.30;64.10
65406;DHT22;52016;51.228;-2.322;2022-07-06T04:00:36;16.20;64.20
65406;DHT22;52016;51.228;-2.322;2022-07-06T04:04:18;16.10;64.30
65406;DHT22;52016;51.228;-2.322;2022-07-06T04:08:00;16.00;64.40
65406;DHT22;52016;51.228;-2.322;2022-07-06T04:11:42;15.90;64.40
65406;DHT22;52016;51.228;-2.322;2022-07-06T04:15:24;15.90;64.60
65406;DHT22;52016;51.228;-2.322;2022-07-06T04:19:06;15.90;64.50
65406;DHT22;52016;51.228;-2.322;2022-07-06T04:22:48;15.90;64.60
65406;DHT22;52016;51.228;-2.322;2022-07-06T04:26:30;15.90;64.60
65406;DHT22;52016;51.228;-2.322;2022-07-06T04:30:12;15.90;64.60
65406;DHT22;52016;51.228;-2.322;2022-07-06T04:33:54;15.80;64.60
65406;DHT22;52016;51.228;-2.322;2022-07-06T04:37:36;15.80;64.70
65406;DHT22;52016;51.228;-2.322;2022-07-06T04:41:19;15.80;64.80
65406;DHT22;52016;51.228;-2.322;2022-07-06T04:45:01;15.80;64.90
65406;DHT22;52016;51.228;-2.322;2022-07-06T04:48:42;15.80;64.90
65406;DHT22;52016;51.228;-2.322;2022-07-06T04:52:24;15.80;64.90
65406;DHT22;52016;51.228;-2.322;2022-07-06T04:56:07;15.80;65.00
65406;DHT22;52016;51.228;-2.322;2022-07-06T04:59:48;15.80;65.00
65406;DHT22;52016;51.228;-2.322;2022-07-06T05:03:30;15.80;65.10
65406;DHT22;52016;51.228;-2.322;2022-07-06T05:07:13;15.80;65.20
65406;DHT22;52016;51.228;-2.322;2022-07-06T05:10:55;15.80;65.20
65406;DHT22;52016;51.228;-2.322;2022-07-06T05:14:37;15.70;65.40
65406;DHT22;52016;51.228;-2.322;2022-07-06T05:18:19;15.60;65.40
65406;DHT22;52016;51.228;-2.322;2022-07-06T05:22:01;15.60;65.60
65406;DHT22;52016;51.228;-2.322;2022-07-06T05:25:43;15.70;65.70
65406;DHT22;52016;51.228;-2.322;2022-07-06T05:29:25;15.80;65.80
65406;DHT22;52016;51.228;-2.322;2022-07-06T05:33:06;15.80;65.80
65406;DHT22;52016;51.228;-2.322;2022-07-06T05:36:48;15.80;65.90
65406;DHT22;52016;51.228;-2.322;2022-07-06T05:40:30;15.90;65.90
65406;DHT22;52016;51.228;-2.322;2022-07-06T05:44:12;16.00;66.00
65406;DHT22;52016;51.228;-2.322;2022-07-06T05:47:54;16.20;66.20
65406;DHT22;52016;51.228;-2.322;2022-07-06T05:51:55;16.30;66.20
65406;DHT22;52016;51.228;-2.322;2022-07-06T05:55:37;16.50;66.30
65406;DHT22;52016;51.228;-2.322;2022-07-06T05:59:19;16.60;66.70
65406;DHT22;52016;51.228;-2.322;2022-07-06T06:03:01;16.70;66.90
65406;DHT22;52016;51.228;-2.322;2022-07-06T06:06:43;16.80;66.90
65406;DHT22;52016;51.228;-2.322;2022-07-06T06:10:25;16.90;67.00
65406;DHT22;52016;51.228;-2.322;2022-07-06T06:14:07;17.00;67.00
65406;DHT22;52016;51.228;-2.322;2022-07-06T06:17:49;17.00;67.10
65406;DHT22;52016;51.228;-2.322;2022-07-06T06:21:31;17.10;67.70
65406;DHT22;52016;51.228;-2.322;2022-07-06T06:25:18;17.20;67.30
65406;DHT22;52016;51.228;-2.322;2022-07-06T06:29:00;17.30;67.20
65406;DHT22;52016;51.228;-2.322;2022-07-06T06:32:42;17.30;67.30
65406;DHT22;52016;51.228;-2.322;2022-07-06T06:36:24;17.40;67.30
65406;DHT22;52016;51.228;-2.322;2022-07-06T06:40:06;17.40;67.50
65406;DHT22;52016;51.228;-2.322;2022-07-06T06:43:48;17.50;67.40
65406;DHT22;52016;51.228;-2.322;2022-07-06T06:47:30;17.70;67.50
65406;DHT22;52016;51.228;-2.322;2022-07-06T06:51:12;17.80;67.30
65406;DHT22;52016;51.228;-2.322;2022-07-06T06:54:54;17.90;67.30
65406;DHT22;52016;51.228;-2.322;2022-07-06T06:58:36;18.00;67.30
65406;DHT22;52016;51.228;-2.322;2022-07-06T07:02:38;18.10;67.30
65406;DHT22;52016;51.228;-2.322;2022-07-06T07:06:21;18.30;67.30
65406;DHT22;52016;51.228;-2.322;2022-07-06T07:10:04;18.50;67.10
65406;DHT22;52016;51.228;-2.322;2022-07-06T07:13:46;18.60;67.00
65406;DHT22;52016;51.228;-2.322;2022-07-06T07:17:28;18.70;67.00
65406;DHT22;52016;51.228;-2.322;2022-07-06T07:21:10;18.80;67.00
65406;DHT22;52016;51.228;-2.322;2022-07-06T07:24:52;18.90;66.80
65406;DHT22;52016;51.228;-2.322;2022-07-06T07:28:34;19.00;66.70
65406;DHT22;52016;51.228;-2.322;2022-07-06T07:32:16;19.10;66.60
65406;DHT22;52016;51.228;-2.322;2022-07-06T07:35:58;19.10;66.50
65406;DHT22;52016;51.228;-2.322;2022-07-06T07:39:40;19.20;66.40
65406;DHT22;52016;51.228;-2.322;2022-07-06T07:43:22;19.30;66.20
65406;DHT22;52016;51.228;-2.322;2022-07-06T07:47:05;19.40;66.10
65406;DHT22;52016;51.228;-2.322;2022-07-06T07:50:47;19.40;66.10
65406;DHT22;52016;51.228;-2.322;2022-07-06T07:54:29;19.50;66.00
65406;DHT22;52016;51.228;-2.322;2022-07-06T07:58:11;19.50;66.00
65406;DHT22;52016;51.228;-2.322;2022-07-06T08:01:53;19.60;65.90
65406;DHT22;52016;51.228;-2.322;2022-07-06T08:05:35;19.50;65.80
65406;DHT22;52016;51.228;-2.322;2022-07-06T08:09:17;19.50;65.80
65406;DHT22;52016;51.228;-2.322;2022-07-06T08:12:59;19.40;65.80
65406;DHT22;52016;51.228;-2.322;2022-07-06T08:16:41;19.50;65.80
65406;DHT22;52016;51.228;-2.322;2022-07-06T08:20:23;19.50;65.90
65406;DHT22;52016;51.228;-2.322;2022-07-06T08:24:05;19.60;65.90
65406;DHT22;52016;51.228;-2.322;2022-07-06T08:27:47;19.70;65.80
65406;DHT22;52016;51.228;-2.322;2022-07-06T08:31:30;19.90;65.60
65406;DHT22;52016;51.228;-2.322;2022-07-06T08:35:32;20.10;65.40
65406;DHT22;52016;51.228;-2.322;2022-07-06T08:39:14;20.30;65.20
65406;DHT22;52016;51.228;-2.322;2022-07-06T08:42:57;20.40;64.90
65406;DHT22;52016;51.228;-2.322;2022-07-06T08:46:41;20.60;64.70
65406;DHT22;52016;51.228;-2.322;2022-07-06T08:50:25;20.80;64.60
65406;DHT22;52016;51.228;-2.322;2022-07-06T08:54:08;20.90;64.30
65406;DHT22;52016;51.228;-2.322;2022-07-06T08:57:50;20.90;64.20
65406;DHT22;52016;51.228;-2.322;2022-07-06T09:01:33;20.90;64.00
65406;DHT22;52016;51.228;-2.322;2022-07-06T09:05:16;21.00;63.90
65406;DHT22;52016;51.228;-2.322;2022-07-06T09:08:58;21.10;63.80
65406;DHT22;52016;51.228;-2.322;2022-07-06T09:12:41;21.20;63.60
65406;DHT22;52016;51.228;-2.322;2022-07-06T09:16:28;21.40;63.40
65406;DHT22;52016;51.228;-2.322;2022-07-06T09:20:20;21.40;62.90
65406;DHT22;52016;51.228;-2.322;2022-07-06T09:24:07;21.40;63.00
65406;DHT22;52016;51.228;-2.322;2022-07-06T09:27:49;21.40;62.90
65406;DHT22;52016;51.228;-2.322;2022-07-06T09:31:35;21.40;62.80
65406;DHT22;52016;51.228;-2.322;2022-07-06T09:35:35;21.30;62.70
65406;DHT22;52016;51.228;-2.322;2022-07-06T09:39:22;21.40;62.40
65406;DHT22;52016;51.228;-2.322;2022-07-06T09:43:15;21.40;62.40
65406;DHT22;52016;51.228;-2.322;2022-07-06T09:47:02;21.50;62.00
65406;DHT22;52016;51.228;-2.322;2022-07-06T09:50:47;21.70;61.70
65406;DHT22;52016;51.228;-2.322;2022-07-06T09:54:30;21.70;61.60
65406;DHT22;52016;51.228;-2.322;2022-07-06T09:58:13;21.90;61.50
65406;DHT22;52016;51.228;-2.322;2022-07-06T10:02:00;21.90;61.30
65406;DHT22;52016;51.228;-2.322;2022-07-06T10:05:45;21.90;61.10
65406;DHT22;52016;51.228;-2.322;2022-07-06T10:09:31;21.90;61.10
65406;DHT22;52016;51.228;-2.322;2022-07-06T10:13:15;21.90;61.00
65406;DHT22;52016;51.228;-2.322;2022-07-06T10:17:03;21.90;61.00
65406;DHT22;52016;51.228;-2.322;2022-07-06T10:20:46;21.90;60.80
65406;DHT22;52016;51.228;-2.322;2022-07-06T10:24:29;21.90;60.80
65406;DHT22;52016;51.228;-2.322;2022-07-06T10:28:11;21.90;60.70
65406;DHT22;52016;51.228;-2.322;2022-07-06T10:31:56;21.80;60.60
65406;DHT22;52016;51.228;-2.322;2022-07-06T10:35:40;21.90;60.60
65406;DHT22;52016;51.228;-2.322;2022-07-06T10:39:37;22.00;60.40
65406;DHT22;52016;51.228;-2.322;2022-07-06T10:43:45;22.00;59.10
65406;DHT22;52016;51.228;-2.322;2022-07-06T10:47:28;22.10;59.40
65406;DHT22;52016;51.228;-2.322;2022-07-06T10:51:26;22.10;59.90
65406;DHT22;52016;51.228;-2.322;2022-07-06T10:55:08;22.10;59.10
65406;DHT22;52016;51.228;-2.322;2022-07-06T10:59:20;22.20;59.70
65406;DHT22;52016;51.228;-2.322;2022-07-06T11:07:19;22.60;58.30
65406;DHT22;52016;51.228;-2.322;2022-07-06T11:14:58;22.60;58.20
65406;DHT22;52016;51.228;-2.322;2022-07-06T11:18:49;22.50;58.80
65406;DHT22;52016;51.228;-2.322;2022-07-06T11:22:31;22.40;58.90
65406;DHT22;52016;51.228;-2.322;2022-07-06T11:26:14;22.40;59.00
65406;DHT22;52016;51.228;-2.322;2022-07-06T11:29:56;22.40;59.20
65406;DHT22;52016;51.228;-2.322;2022-07-06T11:33:38;22.40;59.20
65406;DHT22;52016;51.228;-2.322;2022-07-06T11:37:20;22.20;59.30
65406;DHT22;52016;51.228;-2.322;2022-07-06T11:41:02;22.10;59.50
65406;DHT22;52016;51.228;-2.322;2022-07-06T11:44:45;22.00;59.70
65406;DHT22;52016;51.228;-2.322;2022-07-06T11:48:28;22.00;59.70
65406;DHT22;52016;51.228;-2.322;2022-07-06T11:52:13;22.10;59.70
65406;DHT22;52016;51.228;-2.322;2022-07-06T11:56:02;22.20;59.50
65406;DHT22;52016;51.228;-2.322;2022-07-06T11:59:44;22.40;59.10
65406;DHT22;52016;51.228;-2.322;2022-07-06T12:03:28;22.60;59.10
65406;DHT22;52016;51.228;-2.322;2022-07-06T12:07:13;22.80;58.90
65406;DHT22;52016;51.228;-2.322;2022-07-06T12:10:56;23.00;58.70
65406;DHT22;52016;51.228;-2.322;2022-07-06T12:14:40;23.30;58.30
65406;DHT22;52016;51.228;-2.322;2022-07-06T12:18:36;23.40;57.70
65406;DHT22;52016;51.228;-2.322;2022-07-06T12:22:24;23.40;56.60
65406;DHT22;52016;51.228;-2.322;2022-07-06T12:26:07;23.50;56.80
65406;DHT22;52016;51.228;-2.322;2022-07-06T12:29:50;23.40;56.80
65406;DHT22;52016;51.228;-2.322;2022-07-06T12:33:32;23.40;57.00
65406;DHT22;52016;51.228;-2.322;2022-07-06T12:37:15;23.40;57.00
65406;DHT22;52016;51.228;-2.322;2022-07-06T12:40:57;23.40;57.30
65406;DHT22;52016;51.228;-2.322;2022-07-06T12:44:45;23.80;57.10
65406;DHT22;52016;51.228;-2.322;2022-07-06T12:48:28;24.10;56.30
65406;DHT22;52016;51.228;-2.322;2022-07-06T12:52:16;24.20;56.00
65406;DHT22;52016;51.228;-2.322;2022-07-06T12:56:12;24.10;55.90
65406;DHT22;52016;51.228;-2.322;2022-07-06T13:03:39;23.80;56.00
65406;DHT22;52016;51.228;-2.322;2022-07-06T13:07:22;23.80;56.20
65406;DHT22;52016;51.228;-2.322;2022-07-06T13:11:04;23.70;56.10
65406;DHT22;52016;51.228;-2.322;2022-07-06T13:14:46;23.70;56.40
65406;DHT22;52016;51.228;-2.322;2022-07-06T13:18:28;23.70;56.30
65406;DHT22;52016;51.228;-2.322;2022-07-06T13:22:10;23.70;56.00
65406;DHT22;52016;51.228;-2.322;2022-07-06T13:25:52;23.50;56.30
65406;DHT22;52016;51.228;-2.322;2022-07-06T13:29:36;23.70;56.20
65406;DHT22;52016;51.228;-2.322;2022-07-06T13:33:18;23.70;56.20
65406;DHT22;52016;51.228;-2.322;2022-07-06T13:37:01;23.90;56.10
65406;DHT22;52016;51.228;-2.322;2022-07-06T13:40:42;23.80;55.80
65406;DHT22;52016;51.228;-2.322;2022-07-06T13:44:25;23.80;56.00
65406;DHT22;52016;51.228;-2.322;2022-07-06T13:48:07;23.90;55.70
65406;DHT22;52016;51.228;-2.322;2022-07-06T13:51:49;24.00;55.70
65406;DHT22;52016;51.228;-2.322;2022-07-06T13:55:31;24.00;55.60
65406;DHT22;52016;51.228;-2.322;2022-07-06T13:59:13;23.90;55.40
65406;DHT22;52016;51.228;-2.322;2022-07-06T14:02:55;23.90;55.70
65406;DHT22;52016;51.228;-2.322;2022-07-06T14:06:38;23.90;55.90
65406;DHT22;52016;51.228;-2.322;2022-07-06T14:10:22;24.40;55.70
65406;DHT22;52016;51.228;-2.322;2022-07-06T14:14:06;24.40;54.60
65406;DHT22;52016;51.228;-2.322;2022-07-06T14:17:48;24.50;55.00
65406;DHT22;52016;51.228;-2.322;2022-07-06T14:21:31;24.60;55.00
65406;DHT22;52016;51.228;-2.322;2022-07-06T14:25:13;25.00;54.70
65406;DHT22;52016;51.228;-2.322;2022-07-06T14:28:55;25.00;54.30
65406;DHT22;52016;51.228;-2.322;2022-07-06T14:32:37;24.90;54.40
65406;DHT22;52016;51.228;-2.322;2022-07-06T14:36:19;24.70;54.50
65406;DHT22;52016;51.228;-2.322;2022-07-06T14:40:01;24.50;54.50
65406;DHT22;52016;51.228;-2.322;2022-07-06T14:43:43;24.30;54.70
65406;DHT22;52016;51.228;-2.322;2022-07-06T14:47:25;24.30;54.90
65406;DHT22;52016;51.228;-2.322;2022-07-06T14:51:07;24.60;54.70
65406;DHT22;52016;51.228;-2.322;2022-07-06T14:54:49;25.10;54.60
65406;DHT22;52016;51.228;-2.322;2022-07-06T14:58:31;25.90;53.90
65406;DHT22;52016;51.228;-2.322;2022-07-06T15:02:13;26.40;53.50
65406;DHT22;52016;51.228;-2.322;2022-07-06T15:05:55;27.00;52.50
65406;DHT22;52016;51.228;-2.322;2022-07-06T15:09:37;27.20;51.70
65406;DHT22;52016;51.228;-2.322;2022-07-06T15:13:19;26.90;51.80
65406;DHT22;52016;51.228;-2.322;2022-07-06T15:17:02;26.70;51.80
65406;DHT22;52016;51.228;-2.322;2022-07-06T15:20:44;26.60;51.80
65406;DHT22;52016;51.228;-2.322;2022-07-06T15:24:26;26.80;51.60
65406;DHT22;52016;51.228;-2.322;2022-07-06T15:28:08;27.40;51.00
65406;DHT22;52016;51.228;-2.322;2022-07-06T15:31:51;27.50;50.30
65406;DHT22;52016;51.228;-2.322;2022-07-06T15:35:34;27.20;50.70
65406;DHT22;52016;51.228;-2.322;2022-07-06T15:39:16;27.10;50.30
65406;DHT22;52016;51.228;-2.322;2022-07-06T15:42:58;26.80;50.40
65406;DHT22;52016;51.228;-2.322;2022-07-06T15:46:41;26.30;50.40
65406;DHT22;52016;51.228;-2.322;2022-07-06T15:50:23;26.40;50.70
65406;DHT22;52016;51.228;-2.322;2022-07-06T15:54:05;26.40;50.20
65406;DHT22;52016;51.228;-2.322;2022-07-06T15:57:47;26.00;50.50
65406;DHT22;52016;51.228;-2.322;2022-07-06T16:01:30;25.80;50.60
65406;DHT22;52016;51.228;-2.322;2022-07-06T16:05:12;25.50;50.80
65406;DHT22;52016;51.228;-2.322;2022-07-06T16:08:54;25.60;50.80
65406;DHT22;52016;51.228;-2.322;2022-07-06T16:12:36;25.50;50.70
65406;DHT22;52016;51.228;-2.322;2022-07-06T16:16:18;25.50;51.20
65406;DHT22;52016;51.228;-2.322;2022-07-06T16:20:01;26.40;50.50
65406;DHT22;52016;51.228;-2.322;2022-07-06T16:23:43;27.40;49.30
65406;DHT22;52016;51.228;-2.322;2022-07-06T16:27:26;28.20;48.50
65406;DHT22;52016;51.228;-2.322;2022-07-06T16:31:08;28.80;47.30
65406;DHT22;52016;51.228;-2.322;2022-07-06T16:34:50;28.90;46.90
65406;DHT22;52016;51.228;-2.322;2022-07-06T16:38:32;29.30;46.60
65406;DHT22;52016;51.228;-2.322;2022-07-06T16:42:15;29.40;46.00
65406;DHT22;52016;51.228;-2.322;2022-07-06T16:46:00;29.50;46.00
65406;DHT22;52016;51.228;-2.322;2022-07-06T16:49:42;29.90;45.40
65406;DHT22;52016;51.228;-2.322;2022-07-06T16:53:25;30.00;45.30
65406;DHT22;52016;51.228;-2.322;2022-07-06T16:57:08;30.30;44.90
65406;DHT22;52016;51.228;-2.322;2022-07-06T17:00:50;30.60;44.30
65406;DHT22;52016;51.228;-2.322;2022-07-06T17:04:32;30.60;44.20
65406;DHT22;52016;51.228;-2.322;2022-07-06T17:08:14;30.60;44.10
65406;DHT22;52016;51.228;-2.322;2022-07-06T17:11:56;30.30;43.90
65406;DHT22;52016;51.228;-2.322;2022-07-06T17:15:38;29.10;44.90
65406;DHT22;52016;51.228;-2.322;2022-07-06T17:19:20;28.10;46.10
65406;DHT22;52016;51.228;-2.322;2022-07-06T17:23:02;28.40;46.40
65406;DHT22;52016;51.228;-2.322;2022-07-06T17:26:44;28.90;45.60
65406;DHT22;52016;51.228;-2.322;2022-07-06T17:30:26;28.90;45.80
65406;DHT22;52016;51.228;-2.322;2022-07-06T17:34:08;29.30;45.30
65406;DHT22;52016;51.228;-2.322;2022-07-06T17:37:50;29.30;45.00
65406;DHT22;52016;51.228;-2.322;2022-07-06T17:41:36;29.20;45.10
65406;DHT22;52016;51.228;-2.322;2022-07-06T17:45:18;28.80;45.30
65406;DHT22;52016;51.228;-2.322;2022-07-06T17:49:00;28.20;46.00
65406;DHT22;52016;51.228;-2.322;2022-07-06T17:52:42;28.30;46.20
65406;DHT22;52016;51.228;-2.322;2022-07-06T17:56:24;28.90;45.50
65406;DHT22;52016;51.228;-2.322;2022-07-06T18:00:06;29.30;45.00
65406;DHT22;52016;51.228;-2.322;2022-07-06T18:03:51;29.80;44.40
65406;DHT22;52016;51.228;-2.322;2022-07-06T18:07:33;30.20;43.90
65406;DHT22;52016;51.228;-2.322;2022-07-06T18:11:15;30.20;43.70
65406;DHT22;52016;51.228;-2.322;2022-07-06T18:14:57;30.20;43.80
65406;DHT22;52016;51.228;-2.322;2022-07-06T18:18:39;30.40;43.50
65406;DHT22;52016;51.228;-2.322;2022-07-06T18:22:21;30.20;43.70
65406;DHT22;52016;51.228;-2.322;2022-07-06T18:26:04;30.40;43.60
65406;DHT22;52016;51.228;-2.322;2022-07-06T18:29:48;30.40;43.60
65406;DHT22;52016;51.228;-2.322;2022-07-06T18:33:36;30.60;43.50
65406;DHT22;52016;51.228;-2.322;2022-07-06T18:37:18;31.00;43.10
65406;DHT22;52016;51.228;-2.322;2022-07-06T18:41:00;30.60;43.10
65406;DHT22;52016;51.228;-2.322;2022-07-06T18:44:42;29.60;44.10
65406;DHT22;52016;51.228;-2.322;2022-07-06T18:48:24;29.30;44.50
65406;DHT22;52016;51.228;-2.322;2022-07-06T18:52:06;29.40;44.40
65406;DHT22;52016;51.228;-2.322;2022-07-06T18:55:48;29.50;44.20
65406;DHT22;52016;51.228;-2.322;2022-07-06T18:59:30;29.60;44.00
65406;DHT22;52016;51.228;-2.322;2022-07-06T19:03:12;29.50;44.10
65406;DHT22;52016;51.228;-2.322;2022-07-06T19:06:54;29.20;44.50
65406;DHT22;52016;51.228;-2.322;2022-07-06T19:10:36;29.20;44.40
65406;DHT22;52016;51.228;-2.322;2022-07-06T19:14:18;28.50;45.00
65406;DHT22;52016;51.228;-2.322;2022-07-06T19:18:00;27.40;46.50
65406;DHT22;52016;51.228;-2.322;2022-07-06T19:21:42;26.40;47.60
65406;DHT22;52016;51.228;-2.322;2022-07-06T19:25:24;25.80;48.50
65406;DHT22;52016;51.228;-2.322;2022-07-06T19:29:06;25.10;49.30
65406;DHT22;52016;51.228;-2.322;2022-07-06T19:32:48;24.70;50.00
65406;DHT22;52016;51.228;-2.322;2022-07-06T19:36:30;24.30;50.50
65406;DHT22;52016;51.228;-2.322;2022-07-06T19:40:14;23.90;51.40
65406;DHT22;52016;51.228;-2.322;2022-07-06T19:43:56;23.70;52.00
65406;DHT22;52016;51.228;-2.322;2022-07-06T19:47:38;23.40;52.10
65406;DHT22;52016;51.228;-2.322;2022-07-06T19:51:20;23.30;52.50
65406;DHT22;52016;51.228;-2.322;2022-07-06T19:55:03;23.10;52.70
65406;DHT22;52016;51.228;-2.322;2022-07-06T19:58:46;22.90;52.90
65406;DHT22;52016;51.228;-2.322;2022-07-06T20:02:28;22.80;53.30
65406;DHT22;52016;51.228;-2.322;2022-07-06T20:06:11;22.60;53.60
65406;DHT22;52016;51.228;-2.322;2022-07-06T20:09:53;22.40;54.00
65406;DHT22;52016;51.228;-2.322;2022-07-06T20:13:35;22.20;54.30
65406;DHT22;52016;51.228;-2.322;2022-07-06T20:17:17;22.00;54.70
65406;DHT22;52016;51.228;-2.322;2022-07-06T20:20:59;21.80;55.20
65406;DHT22;52016;51.228;-2.322;2022-07-06T20:24:41;21.60;55.60
65406;DHT22;52016;51.228;-2.322;2022-07-06T20:28:23;21.40;56.10
65406;DHT22;52016;51.228;-2.322;2022-07-06T20:32:05;21.20;56.60
65406;DHT22;52016;51.228;-2.322;2022-07-06T20:35:48;21.00;57.20
65406;DHT22;52016;51.228;-2.322;2022-07-06T20:39:30;20.90;57.20
65406;DHT22;52016;51.228;-2.322;2022-07-06T20:43:12;20.80;57.50
65406;DHT22;52016;51.228;-2.322;2022-07-06T20:47:03;20.70;57.80
65406;DHT22;52016;51.228;-2.322;2022-07-06T20:50:46;20.60;58.00
65406;DHT22;52016;51.228;-2.322;2022-07-06T20:54:28;20.60;58.00
65406;DHT22;52016;51.228;-2.322;2022-07-06T20:58:10;20.50;58.10
65406;DHT22;52016;51.228;-2.322;2022-07-06T21:01:52;20.50;58.10
65406;DHT22;52016;51.228;-2.322;2022-07-06T21:05:34;20.40;58.40
65406;DHT22;52016;51.228;-2.322;2022-07-06T21:09:16;20.40;58.60
65406;DHT22;52016;51.228;-2.322;2022-07-06T21:12:58;20.40;58.70
65406;DHT22;52016;51.228;-2.322;2022-07-06T21:16:41;20.30;58.90
65406;DHT22;52016;51.228;-2.322;2022-07-06T21:20:23;20.40;59.00
65406;DHT22;52016;51.228;-2.322;2022-07-06T21:24:05;20.40;58.80
65406;DHT22;52016;51.228;-2.322;2022-07-06T21:27:47;20.30;59.00
65406;DHT22;52016;51.228;-2.322;2022-07-06T21:31:29;20.30;59.30
65406;DHT22;52016;51.228;-2.322;2022-07-06T21:35:11;20.20;59.40
65406;DHT22;52016;51.228;-2.322;2022-07-06T21:38:53;20.10;59.50
65406;DHT22;52016;51.228;-2.322;2022-07-06T21:42:35;20.00;59.80
65406;DHT22;52016;51.228;-2.322;2022-07-06T21:46:17;19.90;60.20
65406;DHT22;52016;51.228;-2.322;2022-07-06T21:50:00;19.80;60.40
65406;DHT22;52016;51.228;-2.322;2022-07-06T21:53:42;19.80;60.30
65406;DHT22;52016;51.228;-2.322;2022-07-06T21:57:24;19.70;60.60
65406;DHT22;52016;51.228;-2.322;2022-07-06T22:01:06;19.60;61.00
65406;DHT22;52016;51.228;-2.322;2022-07-06T22:04:48;19.50;61.30
65406;DHT22;52016;51.228;-2.322;2022-07-06T22:08:30;19.50;61.40
65406;DHT22;52016;51.228;-2.322;2022-07-06T22:12:12;19.40;61.60
65406;DHT22;52016;51.228;-2.322;2022-07-06T22:15:54;19.40;62.00
65406;DHT22;52016;51.228;-2.322;2022-07-06T22:19:36;19.30;62.30
65406;DHT22;52016;51.228;-2.322;2022-07-06T22:23:18;19.30;62.70
65406;DHT22;52016;51.228;-2.322;2022-07-06T22:27:00;19.20;62.90
65406;DHT22;52016;51.228;-2.322;2022-07-06T22:30:42;19.10;63.20
65406;DHT22;52016;51.228;-2.322;2022-07-06T22:34:24;19.10;63.30
65406;DHT22;52016;51.228;-2.322;2022-07-06T22:38:06;19.00;63.70
65406;DHT22;52016;51.228;-2.322;2022-07-06T22:41:48;18.90;63.80
65406;DHT22;52016;51.228;-2.322;2022-07-06T22:45:30;18.90;64.40
65406;DHT22;52016;51.228;-2.322;2022-07-06T22:49:12;18.90;64.10
65406;DHT22;52016;51.228;-2.322;2022-07-06T22:52:54;18.90;64.40
65406;DHT22;52016;51.228;-2.322;2022-07-06T22:56:36;18.90;64.30
65406;DHT22;52016;51.228;-2.322;2022-07-06T23:00:18;18.90;64.40
65406;DHT22;52016;51.228;-2.322;2022-07-06T23:04:00;18.90;64.60
65406;DHT22;52016;51.228;-2.322;2022-07-06T23:07:42;19.00;64.70
65406;DHT22;52016;51.228;-2.322;2022-07-06T23:11:24;19.00;64.70
65406;DHT22;52016;51.228;-2.322;2022-07-06T23:15:07;18.90;65.10
65406;DHT22;52016;51.228;-2.322;2022-07-06T23:18:49;18.90;65.40